Погода Намадзина неделю

Южная Провинция, Малави

24 - 30 июля
  • 24июля
    Сегодня
    +11°
    +27°
    Ясно и безоблачно
    ВремяПогодаТемператураВлажностьДавлениеВетер, м/сВероятность осадков
    02:00Ясно и безоблачно+14°C74 %666 мм1.9 м/с5 %
    05:00Ясно и безоблачно+10°C89 %665 мм1.9 м/с5 %
    08:00Ясно и безоблачно+18°C73 %668 мм1.5 м/с5 %
    11:00Ясно и безоблачно+24°C25 %668 мм1.4 м/с5 %
    14:00Ясно и безоблачно+26°C17 %667 мм1.6 м/с5 %
    17:00Ясно и безоблачно+23°C26 %666 мм1.5 м/с5 %
    20:00Ясно и безоблачно+17°C33 %665 мм2.1 м/с5 %
    23:00Ясно и безоблачно+16°C34 %664 мм1.6 м/с5 %
  • 25июля
    Четверг
    +13°
    +27°
    Ясно и безоблачно
    ВремяПогодаТемператураВлажностьДавлениеВетер, м/сВероятность осадков
    02:00Ясно и безоблачно+17°C36 %663 мм1.3 м/с5 %
    05:00Ясно и безоблачно+12°C41 %662 мм0.8 м/с5 %
    08:00Ясно и безоблачно+20°C33 %666 мм0.9 м/с5 %
    11:00Ясно и безоблачно+25°C15 %667 мм3.4 м/с5 %
    14:00Ясно и безоблачно+26°C12 %665 мм5.0 м/с5 %
    17:00Ясно и безоблачно+24°C20 %665 мм3.0 м/с5 %
    20:00Ясно и безоблачно+18°C33 %664 мм2.6 м/с5 %
    23:00Ясно и безоблачно+15°C33 %663 мм2.3 м/с5 %
  • 26июля
    Пятница
    +11°
    +27°
    Ясно и безоблачно
    ВремяПогодаТемператураВлажностьДавлениеВетер, м/сВероятность осадков
    02:00Ясно и безоблачно+14°C37 %662 мм1.7 м/с5 %
    05:00Ясно и безоблачно+13°C39 %662 мм1.5 м/с5 %
    08:00Ясно и безоблачно+20°C31 %666 мм0.8 м/с5 %
    11:00Ясно и безоблачно+25°C19 %667 мм1.8 м/с5 %
    14:00Ясно и безоблачно+27°C17 %665 мм2.7 м/с5 %
    17:00Ясно и безоблачно+24°C25 %665 мм3.8 м/с5 %
    20:00Ясно и безоблачно+19°C36 %665 мм2.9 м/с5 %
    23:00Ясно и безоблачно+15°C44 %664 мм2.2 м/с5 %
  • 27июля
    Суббота
    +11°
    +27°
    Ясно и безоблачно
    ВремяПогодаТемператураВлажностьДавлениеВетер, м/сВероятность осадков
    02:00Ясно и безоблачно+15°C49 %663 мм2.2 м/с5 %
    05:00Ясно и безоблачно+11°C77 %662 мм2.1 м/с5 %
    08:00Ясно и безоблачно+19°C59 %666 мм2.1 м/с5 %
    11:00Ясно и безоблачно+24°C29 %667 мм2.7 м/с5 %
    14:00Ясно и безоблачно+26°C21 %665 мм2.4 м/с5 %
    17:00Ясно и безоблачно+25°C25 %665 мм2.3 м/с5 %
    20:00Ясно и безоблачно+18°C39 %664 мм1.8 м/с5 %
    23:00Ясно и безоблачно+16°C45 %663 мм2.0 м/с5 %
  • 28июля
    Воскресенье
    +15°
    +29°
    Ясно и безоблачно
    ВремяПогодаТемператураВлажностьДавлениеВетер, м/сВероятность осадков
    02:00Ясно и безоблачно+16°C50 %662 мм2.2 м/с5 %
    05:00Ясно и безоблачно+12°C57 %661 мм1.7 м/с5 %
    08:00Ясно и безоблачно+21°C43 %666 мм1.3 м/с5 %
    11:00Ясно и безоблачно+26°C22 %666 мм2.0 м/с5 %
    14:00Ясно и безоблачно+28°C12 %665 мм2.5 м/с5 %
    17:00Ясно и безоблачно+26°C21 %664 мм2.3 м/с5 %
    20:00Ясно и безоблачно+20°C32 %664 мм1.5 м/с5 %
    23:00Ясно и безоблачно+18°C33 %663 мм1.3 м/с5 %
Мы используем cookies
Соглашаюсь